Detall de PIREP

Printer-friendly versionPDF version

[2015/07/15 08:00:00]
Flight IATA:CT1005
Pilot Number:011
Company ICAO:CAT
Aircraft Type:B738/F
PAX:160
Departing Airport: LPPR
Destination Airport: EGGP
Alternate Airport:EGCC
Online: VATSIM
Route:IBERO UL155 ZMR UN873 DELOG UN864 KEGUN
Flight Level:F390
No Slew and time accel
No pause
Crash detect
Detect pilot in Cockpit between each 30 and 45 minutes
08:00 Zero fuel Weight: 136490 Lbs, Fuel Weight: 19345 Lbs
08:00 VATSIM:LPPR 150730Z VRB02KT 3500 BR SCT002 BKN004 17/17 Q1017
08:00 VATSIM:EGGP 150750Z 33012KT 300V010 9999 FEW032 15/08 Q1019
08:06 Parking Brakes off
08:20 Take-off
08:20 Take off Weight: 154726 Lbs
08:20 Wind: 310º @ 012 Knots Heading: 169º
08:20 POS N41º 14´ 44´´ W008º 40´ 50´´
08:20 Gear Up: 157 Knots
08:20 Flaps:5 at 158 Knots
08:21 Flaps:4 at 170 Knots
08:22 Flaps:3 at 174 Knots
08:22 Flaps:2 at 198 Knots
08:22 Flaps:0 at 198 Knots
08:35 Wind:050º@013 Knots Heading: 081º Ground Speed: 384 Knots Altitude 31669 ft
08:42 TOC
08:42 Fuel Weight: 14113 Lb
08:50 Wind:047º@013 Knots Heading: 022º Ground Speed: 453 Knots Altitude 39189 ft
09:05 Wind:029º@012 Knots Heading: 023º Ground Speed: 442 Knots Altitude 39183 ft
09:20 Wind:286º@037 Knots Heading: 000º Ground Speed: 446 Knots Altitude 39212 ft
09:35 Wind:001º@068 Knots Heading: 001º Ground Speed: 397 Knots Altitude 39225 ft
09:50 Wind:247º@033 Knots Heading: 358º Ground Speed: 465 Knots Altitude 39192 ft
10:01 TOD
10:01 Fuel Weight: 8174 Lb
10:05 Wind:036º@031 Knots Heading: 008º Ground Speed: 411 Knots Altitude 36830 ft
10:20 Wind:330º@029 Knots Heading: 000º Ground Speed: 320 Knots Altitude 12503 ft
10:28 Flaps:1 at 248 Knots
10:28 Flaps:2 at 247 Knots
10:28 Flaps:3 at 245 Knots
10:28 Flaps:4 at 222 Knots
10:31 Flaps:5 at 180 Knots
10:32 Flaps:6 at 164 Knots
10:32 Gear Down: 163 Knots
10:33 Flaps:7 at 152 Knots
10:35 Wind:304º@013 Knots Heading: 059º Ground Speed: 159 Knots Altitude 2526 ft
10:37 Flaps:8 at 150 Knots
10:41 TouchDown:Rate -411 ft/min Speed: 112 Knots
10:41 VATSIM:EGGP 151020Z 30015KT 9999 SCT032 15/07 Q1020
10:41 Land
10:41 Wind:306º@015 Knots
10:41 Heading: 268º
10:41 Flight Duration: 02:21
10:41 Landing Weight: 142176 Lbs
10:41 POS N53º 20´ 01´´ W002º 50´ 46´´
10:43 Parking brakes on
10:43 Block to Block Duration: 02:37
10:43 Final Fuel: 5608 Lbls
10:43 Spent Fuel: 13736 Lbls
10:43 Flight Length: 806 NM
10:43 TOD Land Length: 95 NM

Exportar CSV

Powered by Drupal - Modified by Danger4k